sensor_id;sensor_type;location;lat;lon;timestamp;temperature;humidity
66271;DHT22;53063;39.614;8.814;2023-03-23T00:00:47;9.50;99.90
66271;DHT22;53063;39.614;8.814;2023-03-23T00:03:13;9.60;99.90
66271;DHT22;53063;39.614;8.814;2023-03-23T00:05:39;9.50;99.90
66271;DHT22;53063;39.614;8.814;2023-03-23T00:08:19;9.60;99.90
66271;DHT22;53063;39.614;8.814;2023-03-23T00:10:50;9.90;99.90
66271;DHT22;53063;39.614;8.814;2023-03-23T00:13:27;9.90;99.90
66271;DHT22;53063;39.614;8.814;2023-03-23T00:15:53;9.80;99.90
66271;DHT22;53063;39.614;8.814;2023-03-23T00:18:20;9.80;99.90
66271;DHT22;53063;39.614;8.814;2023-03-23T00:20:54;9.70;99.90
66271;DHT22;53063;39.614;8.814;2023-03-23T00:23:22;9.80;99.90
66271;DHT22;53063;39.614;8.814;2023-03-23T00:25:52;9.80;99.90
66271;DHT22;53063;39.614;8.814;2023-03-23T00:28:19;9.90;99.90
66271;DHT22;53063;39.614;8.814;2023-03-23T00:31:00;9.80;99.90
66271;DHT22;53063;39.614;8.814;2023-03-23T00:33:28;9.70;99.90
66271;DHT22;53063;39.614;8.814;2023-03-23T00:35:55;9.60;99.90
66271;DHT22;53063;39.614;8.814;2023-03-23T00:38:22;9.60;99.90
66271;DHT22;53063;39.614;8.814;2023-03-23T00:40:49;9.80;99.90
66271;DHT22;53063;39.614;8.814;2023-03-23T00:43:16;9.90;99.90
66271;DHT22;53063;39.614;8.814;2023-03-23T00:45:44;9.90;99.90
66271;DHT22;53063;39.614;8.814;2023-03-23T00:48:22;10.00;99.90
66271;DHT22;53063;39.614;8.814;2023-03-23T00:50:49;10.00;99.90
66271;DHT22;53063;39.614;8.814;2023-03-23T00:53:17;10.00;99.90
66271;DHT22;53063;39.614;8.814;2023-03-23T00:55:44;10.00;99.90
66271;DHT22;53063;39.614;8.814;2023-03-23T00:58:11;10.00;99.90
66271;DHT22;53063;39.614;8.814;2023-03-23T01:00:37;10.00;99.90
66271;DHT22;53063;39.614;8.814;2023-03-23T01:03:05;9.90;99.90
66271;DHT22;53063;39.614;8.814;2023-03-23T01:05:35;9.80;99.90
66271;DHT22;53063;39.614;8.814;2023-03-23T01:08:01;9.70;99.90
66271;DHT22;53063;39.614;8.814;2023-03-23T01:10:30;9.70;99.90
66271;DHT22;53063;39.614;8.814;2023-03-23T01:13:01;9.50;99.90
66271;DHT22;53063;39.614;8.814;2023-03-23T01:15:28;9.30;99.90
66271;DHT22;53063;39.614;8.814;2023-03-23T01:17:55;9.30;99.90
66271;DHT22;53063;39.614;8.814;2023-03-23T01:20:22;9.30;99.90
66271;DHT22;53063;39.614;8.814;2023-03-23T01:22:48;9.20;99.90
66271;DHT22;53063;39.614;8.814;2023-03-23T01:25:14;9.30;99.90
66271;DHT22;53063;39.614;8.814;2023-03-23T01:27:40;9.50;99.90
66271;DHT22;53063;39.614;8.814;2023-03-23T01:30:08;9.50;99.90
66271;DHT22;53063;39.614;8.814;2023-03-23T01:32:34;9.40;99.90
66271;DHT22;53063;39.614;8.814;2023-03-23T01:35:01;9.40;99.90
66271;DHT22;53063;39.614;8.814;2023-03-23T01:37:27;9.20;99.90
66271;DHT22;53063;39.614;8.814;2023-03-23T01:39:56;9.20;99.90
66271;DHT22;53063;39.614;8.814;2023-03-23T01:42:29;9.20;99.90
66271;DHT22;53063;39.614;8.814;2023-03-23T01:50:47;8.90;99.90
66271;DHT22;53063;39.614;8.814;2023-03-23T01:53:14;9.00;99.90
66271;DHT22;53063;39.614;8.814;2023-03-23T01:55:42;9.00;99.90
66271;DHT22;53063;39.614;8.814;2023-03-23T01:58:09;9.10;99.90
66271;DHT22;53063;39.614;8.814;2023-03-23T02:00:37;9.20;99.90
66271;DHT22;53063;39.614;8.814;2023-03-23T02:03:06;9.20;99.90
66271;DHT22;53063;39.614;8.814;2023-03-23T02:05:39;9.20;99.90
66271;DHT22;53063;39.614;8.814;2023-03-23T02:08:14;9.10;99.90
66271;DHT22;53063;39.614;8.814;2023-03-23T02:10:41;9.30;99.90
66271;DHT22;53063;39.614;8.814;2023-03-23T02:13:09;9.30;99.90
66271;DHT22;53063;39.614;8.814;2023-03-23T02:15:43;9.30;99.90
66271;DHT22;53063;39.614;8.814;2023-03-23T02:18:32;9.30;99.90
66271;DHT22;53063;39.614;8.814;2023-03-23T02:26:52;9.30;99.90
66271;DHT22;53063;39.614;8.814;2023-03-23T02:32:46;9.30;99.90
66271;DHT22;53063;39.614;8.814;2023-03-23T02:35:23;9.20;99.90
66271;DHT22;53063;39.614;8.814;2023-03-23T02:38:04;9.20;99.90
66271;DHT22;53063;39.614;8.814;2023-03-23T02:40:36;9.20;99.90
66271;DHT22;53063;39.614;8.814;2023-03-23T02:43:08;9.00;99.90
66271;DHT22;53063;39.614;8.814;2023-03-23T02:45:36;9.00;99.90
66271;DHT22;53063;39.614;8.814;2023-03-23T02:48:05;8.80;99.90
66271;DHT22;53063;39.614;8.814;2023-03-23T02:50:32;9.00;99.90
66271;DHT22;53063;39.614;8.814;2023-03-23T02:53:05;9.00;99.90
66271;DHT22;53063;39.614;8.814;2023-03-23T02:55:34;9.10;99.90
66271;DHT22;53063;39.614;8.814;2023-03-23T02:58:06;9.10;99.90
66271;DHT22;53063;39.614;8.814;2023-03-23T03:00:32;9.20;99.90
66271;DHT22;53063;39.614;8.814;2023-03-23T03:02:59;9.20;99.90
66271;DHT22;53063;39.614;8.814;2023-03-23T03:05:46;9.30;99.90
66271;DHT22;53063;39.614;8.814;2023-03-23T03:08:55;9.30;99.90
66271;DHT22;53063;39.614;8.814;2023-03-23T03:11:23;9.30;99.90
66271;DHT22;53063;39.614;8.814;2023-03-23T03:14:15;9.50;99.90
66271;DHT22;53063;39.614;8.814;2023-03-23T03:17:03;9.60;99.90
66271;DHT22;53063;39.614;8.814;2023-03-23T03:19:38;9.60;99.90
66271;DHT22;53063;39.614;8.814;2023-03-23T03:22:06;9.70;99.90
66271;DHT22;53063;39.614;8.814;2023-03-23T03:24:38;9.90;99.90
66271;DHT22;53063;39.614;8.814;2023-03-23T03:27:11;10.00;99.90
66271;DHT22;53063;39.614;8.814;2023-03-23T03:29:51;9.90;99.90
66271;DHT22;53063;39.614;8.814;2023-03-23T03:32:23;9.90;99.90
66271;DHT22;53063;39.614;8.814;2023-03-23T03:34:52;9.90;99.90
66271;DHT22;53063;39.614;8.814;2023-03-23T03:37:19;10.00;99.90
66271;DHT22;53063;39.614;8.814;2023-03-23T03:39:47;9.80;99.90
66271;DHT22;53063;39.614;8.814;2023-03-23T03:42:13;9.80;99.90
66271;DHT22;53063;39.614;8.814;2023-03-23T03:44:39;9.90;99.90
66271;DHT22;53063;39.614;8.814;2023-03-23T03:47:05;10.00;99.90
66271;DHT22;53063;39.614;8.814;2023-03-23T03:49:31;10.10;99.90
66271;DHT22;53063;39.614;8.814;2023-03-23T03:51:57;10.30;99.90
66271;DHT22;53063;39.614;8.814;2023-03-23T03:54:32;10.50;99.90
66271;DHT22;53063;39.614;8.814;2023-03-23T03:56:58;10.50;99.90
66271;DHT22;53063;39.614;8.814;2023-03-23T03:59:33;10.50;99.90
66271;DHT22;53063;39.614;8.814;2023-03-23T04:02:19;10.60;99.90
66271;DHT22;53063;39.614;8.814;2023-03-23T04:04:48;10.60;99.90
66271;DHT22;53063;39.614;8.814;2023-03-23T04:07:15;10.70;99.90
66271;DHT22;53063;39.614;8.814;2023-03-23T04:09:43;10.70;99.90
66271;DHT22;53063;39.614;8.814;2023-03-23T04:12:14;10.70;99.90
66271;DHT22;53063;39.614;8.814;2023-03-23T04:14:55;10.60;99.90
66271;DHT22;53063;39.614;8.814;2023-03-23T04:17:25;10.60;99.90
66271;DHT22;53063;39.614;8.814;2023-03-23T04:19:54;10.60;99.90
66271;DHT22;53063;39.614;8.814;2023-03-23T04:22:24;10.60;99.90
66271;DHT22;53063;39.614;8.814;2023-03-23T04:25:00;10.60;99.90
66271;DHT22;53063;39.614;8.814;2023-03-23T04:27:30;10.70;99.90
66271;DHT22;53063;39.614;8.814;2023-03-23T04:29:59;10.60;99.90
66271;DHT22;53063;39.614;8.814;2023-03-23T04:32:40;10.70;99.90
66271;DHT22;53063;39.614;8.814;2023-03-23T04:35:13;10.60;99.90
66271;DHT22;53063;39.614;8.814;2023-03-23T04:38:02;10.60;99.90
66271;DHT22;53063;39.614;8.814;2023-03-23T04:40:28;10.70;99.90
66271;DHT22;53063;39.614;8.814;2023-03-23T04:43:08;10.60;99.90
66271;DHT22;53063;39.614;8.814;2023-03-23T04:45:57;10.70;99.90
66271;DHT22;53063;39.614;8.814;2023-03-23T04:48:27;10.70;99.90
66271;DHT22;53063;39.614;8.814;2023-03-23T04:51:05;10.70;99.90
66271;DHT22;53063;39.614;8.814;2023-03-23T04:53:32;10.70;99.90
66271;DHT22;53063;39.614;8.814;2023-03-23T04:55:58;10.70;99.90
66271;DHT22;53063;39.614;8.814;2023-03-23T04:58:28;10.70;99.90
66271;DHT22;53063;39.614;8.814;2023-03-23T05:01:06;10.70;99.90
66271;DHT22;53063;39.614;8.814;2023-03-23T05:03:37;10.70;99.90
66271;DHT22;53063;39.614;8.814;2023-03-23T05:06:04;10.70;99.90
66271;DHT22;53063;39.614;8.814;2023-03-23T05:08:31;10.70;99.90
66271;DHT22;53063;39.614;8.814;2023-03-23T05:11:00;10.60;99.90
66271;DHT22;53063;39.614;8.814;2023-03-23T05:13:31;10.60;99.90
66271;DHT22;53063;39.614;8.814;2023-03-23T05:16:03;10.60;99.90
66271;DHT22;53063;39.614;8.814;2023-03-23T05:18:29;10.60;99.90
66271;DHT22;53063;39.614;8.814;2023-03-23T05:20:55;10.60;99.90
66271;DHT22;53063;39.614;8.814;2023-03-23T05:23:24;10.50;99.90
66271;DHT22;53063;39.614;8.814;2023-03-23T05:25:57;10.60;99.90
66271;DHT22;53063;39.614;8.814;2023-03-23T05:28:29;10.60;99.90
66271;DHT22;53063;39.614;8.814;2023-03-23T05:31:19;10.60;99.90
66271;DHT22;53063;39.614;8.814;2023-03-23T05:33:45;10.60;99.90
66271;DHT22;53063;39.614;8.814;2023-03-23T05:36:31;10.70;99.90
66271;DHT22;53063;39.614;8.814;2023-03-23T05:39:20;10.70;99.90
66271;DHT22;53063;39.614;8.814;2023-03-23T05:42:01;10.70;99.90
66271;DHT22;53063;39.614;8.814;2023-03-23T05:44:39;10.80;99.90
66271;DHT22;53063;39.614;8.814;2023-03-23T05:47:05;10.80;99.90
66271;DHT22;53063;39.614;8.814;2023-03-23T05:49:32;10.90;99.90
66271;DHT22;53063;39.614;8.814;2023-03-23T05:51:58;11.00;99.90
66271;DHT22;53063;39.614;8.814;2023-03-23T05:54:26;11.10;99.90
66271;DHT22;53063;39.614;8.814;2023-03-23T05:56:53;11.20;99.90
66271;DHT22;53063;39.614;8.814;2023-03-23T05:59:37;11.20;99.90
66271;DHT22;53063;39.614;8.814;2023-03-23T06:02:06;11.30;99.90
66271;DHT22;53063;39.614;8.814;2023-03-23T06:04:32;11.30;99.90
66271;DHT22;53063;39.614;8.814;2023-03-23T06:07:11;11.40;99.90
66271;DHT22;53063;39.614;8.814;2023-03-23T06:09:40;11.40;99.90
66271;DHT22;53063;39.614;8.814;2023-03-23T06:12:32;11.40;99.90
66271;DHT22;53063;39.614;8.814;2023-03-23T06:15:18;11.40;99.90
66271;DHT22;53063;39.614;8.814;2023-03-23T06:18:00;11.50;99.90
66271;DHT22;53063;39.614;8.814;2023-03-23T06:20:37;11.50;99.90
66271;DHT22;53063;39.614;8.814;2023-03-23T06:23:19;11.50;99.90
66271;DHT22;53063;39.614;8.814;2023-03-23T06:25:46;11.50;99.90
66271;DHT22;53063;39.614;8.814;2023-03-23T06:28:12;11.50;99.90
66271;DHT22;53063;39.614;8.814;2023-03-23T06:30:42;11.50;99.90
66271;DHT22;53063;39.614;8.814;2023-03-23T06:33:09;11.50;99.90
66271;DHT22;53063;39.614;8.814;2023-03-23T06:35:54;11.50;99.90
66271;DHT22;53063;39.614;8.814;2023-03-23T06:38:42;11.60;99.90
66271;DHT22;53063;39.614;8.814;2023-03-23T06:41:08;11.70;99.90
66271;DHT22;53063;39.614;8.814;2023-03-23T06:43:35;11.60;99.90
66271;DHT22;53063;39.614;8.814;2023-03-23T06:46:13;11.70;99.90
66271;DHT22;53063;39.614;8.814;2023-03-23T06:48:39;11.90;99.90
66271;DHT22;53063;39.614;8.814;2023-03-23T06:51:07;11.90;99.90
66271;DHT22;53063;39.614;8.814;2023-03-23T06:53:35;12.00;99.90
66271;DHT22;53063;39.614;8.814;2023-03-23T06:56:03;12.00;99.90
66271;DHT22;53063;39.614;8.814;2023-03-23T06:58:30;11.90;99.90
66271;DHT22;53063;39.614;8.814;2023-03-23T07:00:56;12.00;99.90
66271;DHT22;53063;39.614;8.814;2023-03-23T07:03:30;12.00;99.90
66271;DHT22;53063;39.614;8.814;2023-03-23T07:05:58;12.00;99.90
66271;DHT22;53063;39.614;8.814;2023-03-23T07:08:27;12.10;99.90
66271;DHT22;53063;39.614;8.814;2023-03-23T07:10:55;12.30;99.90
66271;DHT22;53063;39.614;8.814;2023-03-23T07:13:26;12.50;99.90
66271;DHT22;53063;39.614;8.814;2023-03-23T07:15:59;12.50;99.90
66271;DHT22;53063;39.614;8.814;2023-03-23T07:18:27;13.80;99.90
66271;DHT22;53063;39.614;8.814;2023-03-23T07:20:56;14.20;99.90
66271;DHT22;53063;39.614;8.814;2023-03-23T07:23:29;16.30;99.90
66271;DHT22;53063;39.614;8.814;2023-03-23T07:26:08;18.20;95.40
66271;DHT22;53063;39.614;8.814;2023-03-23T07:28:47;17.00;90.60
66271;DHT22;53063;39.614;8.814;2023-03-23T07:31:21;16.90;93.90
66271;DHT22;53063;39.614;8.814;2023-03-23T07:33:47;17.50;93.80
66271;DHT22;53063;39.614;8.814;2023-03-23T07:36:13;18.20;90.90
66271;DHT22;53063;39.614;8.814;2023-03-23T07:38:40;19.50;83.30
66271;DHT22;53063;39.614;8.814;2023-03-23T07:41:07;21.20;75.90
66271;DHT22;53063;39.614;8.814;2023-03-23T07:43:35;21.60;72.30
66271;DHT22;53063;39.614;8.814;2023-03-23T07:46:10;21.90;67.90
66271;DHT22;53063;39.614;8.814;2023-03-23T07:48:54;23.30;62.20
66271;DHT22;53063;39.614;8.814;2023-03-23T07:51:24;23.40;59.60
66271;DHT22;53063;39.614;8.814;2023-03-23T07:53:51;22.40;60.80
66271;DHT22;53063;39.614;8.814;2023-03-23T07:56:36;23.30;60.50
66271;DHT22;53063;39.614;8.814;2023-03-23T07:59:11;22.70;61.30
66271;DHT22;53063;39.614;8.814;2023-03-23T08:01:39;23.90;57.70
66271;DHT22;53063;39.614;8.814;2023-03-23T08:04:27;23.90;57.60
66271;DHT22;53063;39.614;8.814;2023-03-23T08:07:05;23.40;56.30
66271;DHT22;53063;39.614;8.814;2023-03-23T08:09:54;23.20;59.30
66271;DHT22;53063;39.614;8.814;2023-03-23T08:12:39;23.60;58.50
66271;DHT22;53063;39.614;8.814;2023-03-23T08:15:39;24.60;53.60
66271;DHT22;53063;39.614;8.814;2023-03-23T08:18:05;23.50;57.30
66271;DHT22;53063;39.614;8.814;2023-03-23T08:21:04;24.70;54.10
66271;DHT22;53063;39.614;8.814;2023-03-23T08:23:48;25.60;51.50
66271;DHT22;53063;39.614;8.814;2023-03-23T08:26:28;26.00;51.70
66271;DHT22;53063;39.614;8.814;2023-03-23T08:29:11;25.10;51.20
66271;DHT22;53063;39.614;8.814;2023-03-23T08:31:57;26.20;49.90
66271;DHT22;53063;39.614;8.814;2023-03-23T08:34:49;26.20;48.30
66271;DHT22;53063;39.614;8.814;2023-03-23T08:37:42;26.70;48.00
66271;DHT22;53063;39.614;8.814;2023-03-23T08:40:38;26.50;47.50
66271;DHT22;53063;39.614;8.814;2023-03-23T08:43:37;25.00;49.70
66271;DHT22;53063;39.614;8.814;2023-03-23T08:46:23;21.90;57.40
66271;DHT22;53063;39.614;8.814;2023-03-23T08:49:08;20.40;65.00
66271;DHT22;53063;39.614;8.814;2023-03-23T08:52:12;19.70;67.90
66271;DHT22;53063;39.614;8.814;2023-03-23T08:54:53;19.20;68.90
66271;DHT22;53063;39.614;8.814;2023-03-23T08:57:46;19.50;71.70
66271;DHT22;53063;39.614;8.814;2023-03-23T09:00:34;19.70;70.00
66271;DHT22;53063;39.614;8.814;2023-03-23T09:03:12;19.20;71.80
66271;DHT22;53063;39.614;8.814;2023-03-23T09:06:04;19.10;72.40
66271;DHT22;53063;39.614;8.814;2023-03-23T09:08:42;19.60;70.40
66271;DHT22;53063;39.614;8.814;2023-03-23T09:11:09;19.60;70.60
66271;DHT22;53063;39.614;8.814;2023-03-23T09:13:36;19.30;72.40
66271;DHT22;53063;39.614;8.814;2023-03-23T09:16:04;19.60;72.40
66271;DHT22;53063;39.614;8.814;2023-03-23T09:18:30;19.90;71.10
66271;DHT22;53063;39.614;8.814;2023-03-23T09:20:58;20.20;69.90
66271;DHT22;53063;39.614;8.814;2023-03-23T09:23:25;20.30;68.70
66271;DHT22;53063;39.614;8.814;2023-03-23T09:25:51;20.40;67.90
66271;DHT22;53063;39.614;8.814;2023-03-23T09:28:18;20.90;66.30
66271;DHT22;53063;39.614;8.814;2023-03-23T09:30:44;20.80;66.70
66271;DHT22;53063;39.614;8.814;2023-03-23T09:33:11;21.10;66.20
66271;DHT22;53063;39.614;8.814;2023-03-23T09:35:37;21.50;64.40
66271;DHT22;53063;39.614;8.814;2023-03-23T09:38:05;21.30;64.50
66271;DHT22;53063;39.614;8.814;2023-03-23T09:46:16;22.10;61.30
66271;DHT22;53063;39.614;8.814;2023-03-23T09:48:54;22.30;61.90
66271;DHT22;53063;39.614;8.814;2023-03-23T09:51:37;21.80;61.80
66271;DHT22;53063;39.614;8.814;2023-03-23T09:56:39;22.10;61.40
66271;DHT22;53063;39.614;8.814;2023-03-23T09:59:23;22.30;61.10
66271;DHT22;53063;39.614;8.814;2023-03-23T10:01:53;22.00;61.10
66271;DHT22;53063;39.614;8.814;2023-03-23T10:04:36;21.90;61.00
66271;DHT22;53063;39.614;8.814;2023-03-23T10:07:29;22.20;59.40
66271;DHT22;53063;39.614;8.814;2023-03-23T10:09:57;22.00;59.90
66271;DHT22;53063;39.614;8.814;2023-03-23T10:13:02;22.30;59.00
66271;DHT22;53063;39.614;8.814;2023-03-23T10:15:33;22.80;58.00
66271;DHT22;53063;39.614;8.814;2023-03-23T10:18:25;22.60;57.90
66271;DHT22;53063;39.614;8.814;2023-03-23T10:20:57;22.90;57.20
66271;DHT22;53063;39.614;8.814;2023-03-23T10:24:00;23.60;53.80
66271;DHT22;53063;39.614;8.814;2023-03-23T10:29:39;22.40;58.70
66271;DHT22;53063;39.614;8.814;2023-03-23T10:32:17;23.30;55.40
66271;DHT22;53063;39.614;8.814;2023-03-23T10:35:00;23.10;55.50
66271;DHT22;53063;39.614;8.814;2023-03-23T10:37:36;23.00;55.40
66271;DHT22;53063;39.614;8.814;2023-03-23T10:40:05;23.20;54.30
66271;DHT22;53063;39.614;8.814;2023-03-23T10:42:38;23.50;53.70
66271;DHT22;53063;39.614;8.814;2023-03-23T10:47:43;23.20;54.80
66271;DHT22;53063;39.614;8.814;2023-03-23T10:50:14;23.80;53.30
66271;DHT22;53063;39.614;8.814;2023-03-23T10:52:43;23.90;52.50
66271;DHT22;53063;39.614;8.814;2023-03-23T10:55:16;23.70;52.40
66271;DHT22;53063;39.614;8.814;2023-03-23T10:57:57;23.80;53.60
66271;DHT22;53063;39.614;8.814;2023-03-23T11:00:25;23.90;52.90
66271;DHT22;53063;39.614;8.814;2023-03-23T11:03:17;24.10;53.60
66271;DHT22;53063;39.614;8.814;2023-03-23T11:05:56;24.60;51.40
66271;DHT22;53063;39.614;8.814;2023-03-23T11:08:27;24.30;51.90
66271;DHT22;53063;39.614;8.814;2023-03-23T11:13:44;24.00;52.30
66271;DHT22;53063;39.614;8.814;2023-03-23T11:16:26;24.10;52.30
66271;DHT22;53063;39.614;8.814;2023-03-23T11:18:53;24.40;52.10
66271;DHT22;53063;39.614;8.814;2023-03-23T11:21:22;24.50;51.80
66271;DHT22;53063;39.614;8.814;2023-03-23T11:23:53;23.60;51.90
66271;DHT22;53063;39.614;8.814;2023-03-23T11:26:28;24.00;53.30
66271;DHT22;53063;39.614;8.814;2023-03-23T11:28:59;24.60;51.90
66271;DHT22;53063;39.614;8.814;2023-03-23T11:31:35;24.70;51.10
66271;DHT22;53063;39.614;8.814;2023-03-23T11:34:14;24.70;51.90
66271;DHT22;53063;39.614;8.814;2023-03-23T11:36:47;24.40;52.70
66271;DHT22;53063;39.614;8.814;2023-03-23T11:42:20;24.20;51.60
66271;DHT22;53063;39.614;8.814;2023-03-23T11:44:47;23.90;52.40
66271;DHT22;53063;39.614;8.814;2023-03-23T11:47:35;24.60;50.20
66271;DHT22;53063;39.614;8.814;2023-03-23T11:50:14;24.50;50.10
66271;DHT22;53063;39.614;8.814;2023-03-23T11:58:15;24.50;49.50
66271;DHT22;53063;39.614;8.814;2023-03-23T12:00:58;24.70;47.30
66271;DHT22;53063;39.614;8.814;2023-03-23T12:04:00;24.60;48.30
66271;DHT22;53063;39.614;8.814;2023-03-23T12:06:46;24.70;47.90
66271;DHT22;53063;39.614;8.814;2023-03-23T12:12:21;25.00;46.60
66271;DHT22;53063;39.614;8.814;2023-03-23T12:15:07;25.10;47.50
66271;DHT22;53063;39.614;8.814;2023-03-23T12:17:47;25.20;47.10
66271;DHT22;53063;39.614;8.814;2023-03-23T12:20:32;25.00;47.20
66271;DHT22;53063;39.614;8.814;2023-03-23T12:34:47;23.40;50.30
66271;DHT22;53063;39.614;8.814;2023-03-23T12:37:31;24.70;47.10
66271;DHT22;53063;39.614;8.814;2023-03-23T12:45:23;25.20;44.80
66271;DHT22;53063;39.614;8.814;2023-03-23T12:48:15;25.20;44.20
66271;DHT22;53063;39.614;8.814;2023-03-23T12:51:00;25.30;45.80
66271;DHT22;53063;39.614;8.814;2023-03-23T12:53:36;25.40;44.00
66271;DHT22;53063;39.614;8.814;2023-03-23T12:56:19;25.70;44.70
66271;DHT22;53063;39.614;8.814;2023-03-23T12:58:53;25.70;42.70
66271;DHT22;53063;39.614;8.814;2023-03-23T13:01:25;25.70;42.90
66271;DHT22;53063;39.614;8.814;2023-03-23T13:04:03;26.00;41.90
66271;DHT22;53063;39.614;8.814;2023-03-23T13:06:40;26.00;40.70
66271;DHT22;53063;39.614;8.814;2023-03-23T13:09:16;24.80;44.60
66271;DHT22;53063;39.614;8.814;2023-03-23T13:11:43;25.60;43.70
66271;DHT22;53063;39.614;8.814;2023-03-23T13:14:18;25.70;43.80
66271;DHT22;53063;39.614;8.814;2023-03-23T13:16:53;25.40;42.70
66271;DHT22;53063;39.614;8.814;2023-03-23T13:22:35;24.20;48.00
66271;DHT22;53063;39.614;8.814;2023-03-23T13:25:00;25.10;47.50
66271;DHT22;53063;39.614;8.814;2023-03-23T13:27:28;25.20;45.20
66271;DHT22;53063;39.614;8.814;2023-03-23T13:29:56;24.30;46.30
66271;DHT22;53063;39.614;8.814;2023-03-23T13:32:43;24.10;48.80
66271;DHT22;53063;39.614;8.814;2023-03-23T13:35:17;24.60;46.50
66271;DHT22;53063;39.614;8.814;2023-03-23T13:37:49;24.90;46.80
66271;DHT22;53063;39.614;8.814;2023-03-23T13:40:30;24.80;47.60
66271;DHT22;53063;39.614;8.814;2023-03-23T13:42:59;25.00;47.10
66271;DHT22;53063;39.614;8.814;2023-03-23T13:50:30;24.60;47.00
66271;DHT22;53063;39.614;8.814;2023-03-23T13:53:11;24.60;47.20
66271;DHT22;53063;39.614;8.814;2023-03-23T13:55:42;24.30;47.30
66271;DHT22;53063;39.614;8.814;2023-03-23T13:58:23;24.20;47.60
66271;DHT22;53063;39.614;8.814;2023-03-23T14:01:14;23.80;48.50
66271;DHT22;53063;39.614;8.814;2023-03-23T14:03:42;23.60;48.40
66271;DHT22;53063;39.614;8.814;2023-03-23T14:06:18;23.50;49.30
66271;DHT22;53063;39.614;8.814;2023-03-23T14:12:19;23.60;47.90
66271;DHT22;53063;39.614;8.814;2023-03-23T14:14:49;23.20;48.30
66271;DHT22;53063;39.614;8.814;2023-03-23T14:17:23;23.10;48.30
66271;DHT22;53063;39.614;8.814;2023-03-23T14:19:52;23.30;48.00
66271;DHT22;53063;39.614;8.814;2023-03-23T14:22:37;23.20;48.40
66271;DHT22;53063;39.614;8.814;2023-03-23T14:27:38;23.10;47.70
66271;DHT22;53063;39.614;8.814;2023-03-23T14:30:08;23.00;48.40
66271;DHT22;53063;39.614;8.814;2023-03-23T14:32:34;23.00;49.20
66271;DHT22;53063;39.614;8.814;2023-03-23T14:35:30;22.90;47.80
66271;DHT22;53063;39.614;8.814;2023-03-23T14:37:55;22.80;48.60
66271;DHT22;53063;39.614;8.814;2023-03-23T14:40:22;22.50;47.90
66271;DHT22;53063;39.614;8.814;2023-03-23T14:42:50;22.60;47.80
66271;DHT22;53063;39.614;8.814;2023-03-23T14:45:18;22.40;48.10
66271;DHT22;53063;39.614;8.814;2023-03-23T14:47:50;22.50;48.50
66271;DHT22;53063;39.614;8.814;2023-03-23T14:50:27;22.40;48.90
66271;DHT22;53063;39.614;8.814;2023-03-23T14:53:03;22.60;48.80
66271;DHT22;53063;39.614;8.814;2023-03-23T14:55:33;22.30;47.40
66271;DHT22;53063;39.614;8.814;2023-03-23T14:58:07;22.00;48.50
66271;DHT22;53063;39.614;8.814;2023-03-23T15:00:38;22.20;49.00
66271;DHT22;53063;39.614;8.814;2023-03-23T15:03:07;22.10;49.50
66271;DHT22;53063;39.614;8.814;2023-03-23T15:05:40;21.90;48.60
66271;DHT22;53063;39.614;8.814;2023-03-23T15:08:40;21.80;49.60
66271;DHT22;53063;39.614;8.814;2023-03-23T15:11:03;21.80;49.20
66271;DHT22;53063;39.614;8.814;2023-03-23T15:13:29;21.80;49.00
66271;DHT22;53063;39.614;8.814;2023-03-23T15:16:04;21.70;48.90
66271;DHT22;53063;39.614;8.814;2023-03-23T15:18:36;21.50;49.70
66271;DHT22;53063;39.614;8.814;2023-03-23T15:21:22;21.30;48.90
66271;DHT22;53063;39.614;8.814;2023-03-23T15:23:48;20.90;49.60
66271;DHT22;53063;39.614;8.814;2023-03-23T15:26:32;21.00;49.40
66271;DHT22;53063;39.614;8.814;2023-03-23T15:29:24;21.00;49.60
66271;DHT22;53063;39.614;8.814;2023-03-23T15:31:54;20.90;50.20
66271;DHT22;53063;39.614;8.814;2023-03-23T15:34:34;20.80;52.40
66271;DHT22;53063;39.614;8.814;2023-03-23T15:37:17;20.60;52.30
66271;DHT22;53063;39.614;8.814;2023-03-23T15:39:45;20.60;53.40
66271;DHT22;53063;39.614;8.814;2023-03-23T15:52:45;20.10;57.10
66271;DHT22;53063;39.614;8.814;2023-03-23T15:55:28;20.40;58.40
66271;DHT22;53063;39.614;8.814;2023-03-23T15:57:56;20.10;57.00
66271;DHT22;53063;39.614;8.814;2023-03-23T16:00:24;20.00;56.50
66271;DHT22;53063;39.614;8.814;2023-03-23T16:02:57;20.00;57.90
66271;DHT22;53063;39.614;8.814;2023-03-23T16:05:24;19.80;59.10
66271;DHT22;53063;39.614;8.814;2023-03-23T16:07:50;19.80;59.70
66271;DHT22;53063;39.614;8.814;2023-03-23T16:10:19;19.70;59.10
66271;DHT22;53063;39.614;8.814;2023-03-23T16:12:46;19.60;59.80
66271;DHT22;53063;39.614;8.814;2023-03-23T16:15:13;19.70;59.40
66271;DHT22;53063;39.614;8.814;2023-03-23T16:17:39;19.50;59.40
66271;DHT22;53063;39.614;8.814;2023-03-23T16:20:17;19.40;60.70
66271;DHT22;53063;39.614;8.814;2023-03-23T16:22:44;19.30;62.40
66271;DHT22;53063;39.614;8.814;2023-03-23T16:25:11;19.20;63.60
66271;DHT22;53063;39.614;8.814;2023-03-23T16:27:39;19.00;62.90
66271;DHT22;53063;39.614;8.814;2023-03-23T16:30:25;18.90;64.00
66271;DHT22;53063;39.614;8.814;2023-03-23T16:32:51;18.70;65.30
66271;DHT22;53063;39.614;8.814;2023-03-23T16:35:18;18.70;66.80
66271;DHT22;53063;39.614;8.814;2023-03-23T16:37:52;18.50;67.20
66271;DHT22;53063;39.614;8.814;2023-03-23T16:40:19;18.40;68.60
66271;DHT22;53063;39.614;8.814;2023-03-23T16:42:45;18.30;70.80
66271;DHT22;53063;39.614;8.814;2023-03-23T16:45:13;18.30;70.90
66271;DHT22;53063;39.614;8.814;2023-03-23T16:47:39;18.10;71.70
66271;DHT22;53063;39.614;8.814;2023-03-23T16:50:07;17.90;72.00
66271;DHT22;53063;39.614;8.814;2023-03-23T16:52:40;17.90;72.40
66271;DHT22;53063;39.614;8.814;2023-03-23T16:55:07;17.90;72.30
66271;DHT22;53063;39.614;8.814;2023-03-23T16:57:34;17.70;73.30
66271;DHT22;53063;39.614;8.814;2023-03-23T17:00:04;17.60;73.80
66271;DHT22;53063;39.614;8.814;2023-03-23T17:02:31;17.20;75.20
66271;DHT22;53063;39.614;8.814;2023-03-23T17:04:57;17.10;75.80
66271;DHT22;53063;39.614;8.814;2023-03-23T17:07:24;16.90;76.70
66271;DHT22;53063;39.614;8.814;2023-03-23T17:09:50;16.70;77.80
66271;DHT22;53063;39.614;8.814;2023-03-23T17:12:16;16.60;79.30
66271;DHT22;53063;39.614;8.814;2023-03-23T17:14:42;16.50;80.20
66271;DHT22;53063;39.614;8.814;2023-03-23T17:17:08;16.40;80.80
66271;DHT22;53063;39.614;8.814;2023-03-23T17:19:34;16.30;82.10
66271;DHT22;53063;39.614;8.814;2023-03-23T17:22:00;16.30;83.00
66271;DHT22;53063;39.614;8.814;2023-03-23T17:24:26;16.20;83.60
66271;DHT22;53063;39.614;8.814;2023-03-23T17:26:53;16.10;84.40
66271;DHT22;53063;39.614;8.814;2023-03-23T17:29:19;16.00;85.40
66271;DHT22;53063;39.614;8.814;2023-03-23T17:31:47;15.90;86.30
66271;DHT22;53063;39.614;8.814;2023-03-23T17:34:14;16.00;87.10
66271;DHT22;53063;39.614;8.814;2023-03-23T17:36:40;16.00;87.00
66271;DHT22;53063;39.614;8.814;2023-03-23T17:39:06;15.90;87.40